Time;durP1;ratioP1;P1;durP2;ratioP2;P2;SDS_P1;SDS_P2;PMS_P1;PMS_P2;Temp;Humidity;BMP_temperature;BMP_pressure;BME280_temperature;BME280_humidity;BME280_pressure;Samples;Min_cycle;Max_cycle;Signal;HPM_P1;HPM_P2
2022/05/03 00:00:28;;;;;;;2.27;2.27;;;19.00;65.50;;;;;;5130189;27;43996;-71
2022/05/03 00:03:16;;;;;;;2.37;2.30;;;18.90;65.70;;;;;;5130076;27;43757;-72
2022/05/03 00:05:49;;;;;;;2.07;2.07;;;18.90;65.80;;;;;;5129934;27;43854;-72
2022/05/03 00:08:21;;;;;;;2.47;2.47;;;18.90;66.00;;;;;;5105036;27;43430;-72
2022/05/03 00:10:54;;;;;;;2.60;2.40;;;18.80;66.00;;;;;;5124498;27;43881;-72
2022/05/03 00:13:25;;;;;;;2.20;2.20;;;18.80;66.10;;;;;;5129595;27;44311;-72
2022/05/03 00:15:53;;;;;;;2.30;2.30;;;18.80;66.60;;;;;;5130019;27;43992;-71
2022/05/03 00:18:23;;;;;;;2.20;2.20;;;18.90;66.50;;;;;;5129508;27;43491;-71
2022/05/03 00:20:52;;;;;;;2.20;2.20;;;19.10;66.10;;;;;;5130470;27;44002;-71
2022/05/03 00:23:22;;;;;;;2.40;2.30;;;19.30;65.70;;;;;;5129374;27;43972;-72
2022/05/03 00:25:50;;;;;;;2.50;2.50;;;19.40;65.00;;;;;;5130002;27;44032;-71
2022/05/03 00:28:19;;;;;;;2.13;2.13;;;19.50;64.60;;;;;;5129639;27;43884;-72
2022/05/03 00:30:47;;;;;;;2.47;2.37;;;19.50;64.60;;;;;;5130423;27;43941;-72
2022/05/03 00:33:15;;;;;;;2.00;2.00;;;19.30;64.60;;;;;;5129347;27;43974;-72
2022/05/03 00:35:44;;;;;;;2.23;2.23;;;19.20;64.70;;;;;;5129019;27;43965;-72
2022/05/03 00:38:14;;;;;;;2.50;2.40;;;19.20;65.10;;;;;;5110947;27;43899;-72
2022/05/03 00:40:44;;;;;;;2.00;2.00;;;19.10;65.40;;;;;;5129673;27;43743;-72
2022/05/03 00:43:15;;;;;;;2.10;2.10;;;19.00;65.50;;;;;;5129517;27;45058;-71
2022/05/03 00:45:44;;;;;;;2.20;2.20;;;18.90;65.60;;;;;;5129273;27;43377;-72
2022/05/03 00:48:21;;;;;;;2.00;2.00;;;18.90;65.80;;;;;;5129592;27;43347;-71
2022/05/03 00:50:56;;;;;;;2.30;2.30;;;18.90;66.40;;;;;;5130068;27;43411;-71
2022/05/03 00:53:26;;;;;;;2.20;2.20;;;19.00;66.30;;;;;;5129020;27;44085;-73
2022/05/03 00:56:03;;;;;;;2.30;2.30;;;19.10;65.80;;;;;;5123129;27;43812;-70
2022/05/03 00:58:44;;;;;;;2.10;2.10;;;19.20;65.40;;;;;;5128919;27;43938;-72
2022/05/03 01:01:15;;;;;;;2.10;2.10;;;19.20;65.30;;;;;;5128354;27;43855;-71
2022/05/03 01:03:47;;;;;;;2.10;2.10;;;19.10;65.20;;;;;;5128479;27;44208;-72
2022/05/03 01:06:24;;;;;;;2.30;2.30;;;19.10;65.40;;;;;;5129256;27;43895;-71
2022/05/03 01:09:00;;;;;;;2.30;2.30;;;19.00;65.50;;;;;;5110485;27;44029;-72
2022/05/03 01:11:35;;;;;;;2.20;2.20;;;18.90;65.70;;;;;;5129369;27;43950;-71
2022/05/03 01:14:08;;;;;;;2.23;2.23;;;18.90;65.90;;;;;;5110351;27;45773;-71
2022/05/03 01:16:41;;;;;;;2.60;2.40;;;18.90;66.00;;;;;;5128242;27;43907;-71
2022/05/03 01:19:28;;;;;;;2.17;2.17;;;18.90;66.10;;;;;;5129039;27;44042;-71
2022/05/03 01:22:16;;;;;;;2.30;2.30;;;18.80;66.20;;;;;;5110797;27;43889;-72
2022/05/03 01:24:59;;;;;;;2.30;2.30;;;18.80;66.60;;;;;;5109673;27;45888;-73
2022/05/03 01:27:47;;;;;;;2.13;2.13;;;18.90;66.60;;;;;;5128714;27;43277;-73
2022/05/03 01:30:18;;;;;;;2.20;2.20;;;19.10;66.20;;;;;;5129501;27;43912;-71
2022/05/03 01:32:46;;;;;;;2.40;2.40;;;19.30;65.50;;;;;;5128941;27;44006;-72
2022/05/03 01:35:14;;;;;;;2.13;2.07;;;19.50;65.00;;;;;;5109750;27;45714;-72
2022/05/03 01:37:57;;;;;;;2.33;2.33;;;19.50;64.60;;;;;;5128523;27;44052;-71
2022/05/03 01:40:35;;;;;;;2.07;2.07;;;19.50;64.60;;;;;;5123048;27;44006;-72
2022/05/03 01:43:12;;;;;;;2.10;2.10;;;19.40;64.60;;;;;;5128951;27;43904;-72
2022/05/03 01:45:49;;;;;;;2.30;2.30;;;19.30;64.80;;;;;;5127970;27;43994;-71
2022/05/03 01:50:18;;;;;;;1.97;1.97;;;19.20;65.00;;;;;;5128337;27;43985;-72
2022/05/03 01:51:23;;;;;;;2.30;2.30;;;19.10;65.30;;;;;;5110210;27;44038;-72
2022/05/03 01:53:57;;;;;;;2.27;2.27;;;19.00;65.50;;;;;;5109898;27;43915;-72
2022/05/03 01:56:29;;;;;;;2.27;2.27;;;19.00;65.80;;;;;;5127860;27;44266;-71
2022/05/03 01:59:04;;;;;;;2.20;2.20;;;18.90;65.90;;;;;;5128644;27;43936;-72
2022/05/03 02:01:53;;;;;;;2.33;2.33;;;18.90;66.40;;;;;;5128182;27;43900;-72
2022/05/03 02:04:51;;;;;;;2.20;2.20;;;19.10;66.30;;;;;;5123693;27;43853;-71
2022/05/03 02:07:25;;;;;;;2.40;2.40;;;19.20;65.70;;;;;;5110839;27;44067;-71
2022/05/03 02:10:05;;;;;;;2.13;2.13;;;19.20;65.30;;;;;;5109834;27;45184;-72
2022/05/03 02:12:33;;;;;;;2.23;2.23;;;19.20;65.30;;;;;;5127343;27;44118;-72
2022/05/03 02:15:04;;;;;;;2.00;2.00;;;19.10;65.40;;;;;;5128537;27;43987;-71
2022/05/03 02:17:51;;;;;;;2.30;2.30;;;19.00;65.60;;;;;;5127419;27;44871;-71
2022/05/03 02:20:40;;;;;;;2.40;2.40;;;18.90;65.70;;;;;;5127937;27;43986;-72
2022/05/03 02:23:17;;;;;;;2.67;2.57;;;18.90;65.90;;;;;;5128405;27;43417;-72
2022/05/03 02:25:53;;;;;;;2.20;2.20;;;18.90;66.10;;;;;;5128038;27;43974;-72
2022/05/03 02:28:24;;;;;;;2.57;2.47;;;18.80;66.80;;;;;;5127487;27;44928;-71
2022/05/03 02:30:53;;;;;;;2.53;2.53;;;18.80;66.20;;;;;;5127860;27;44023;-71
2022/05/03 02:33:24;;;;;;;2.40;2.40;;;18.80;66.60;;;;;;5127528;27;43821;-72
2022/05/03 02:35:55;;;;;;;2.30;2.30;;;18.80;66.60;;;;;;5109550;27;44145;-71
2022/05/03 02:38:30;;;;;;;2.10;2.10;;;19.00;66.20;;;;;;5108450;27;45759;-71
2022/05/03 02:40:59;;;;;;;2.20;2.20;;;19.20;65.70;;;;;;5128045;27;43974;-72
2022/05/03 02:43:27;;;;;;;2.17;2.17;;;19.40;65.20;;;;;;5127379;27;43931;-71
2022/05/03 02:45:58;;;;;;;2.10;2.10;;;19.50;64.50;;;;;;5128258;27;43911;-72
2022/05/03 02:48:29;;;;;;;2.10;2.10;;;19.60;64.50;;;;;;5127341;27;44072;-71
2022/05/03 02:51:01;;;;;;;2.20;2.20;;;19.50;64.40;;;;;;5103239;27;43973;-72
2022/05/03 02:53:32;;;;;;;2.30;2.30;;;19.40;64.60;;;;;;5127244;27;43970;-72
2022/05/03 02:56:02;;;;;;;2.30;2.30;;;19.30;64.80;;;;;;5109292;27;43838;-71
2022/05/03 02:58:39;;;;;;;2.10;2.10;;;19.20;65.10;;;;;;5127021;27;45119;-72
2022/05/03 03:04:04;;;;;;;2.13;2.13;;;19.00;65.50;;;;;;5127463;27;44047;-71
2022/05/03 03:06:33;;;;;;;2.07;2.07;;;19.00;65.70;;;;;;5127268;27;44114;-72
2022/05/03 03:09:01;;;;;;;2.20;2.20;;;18.90;66.10;;;;;;5108349;27;45919;-71
2022/05/03 03:11:41;;;;;;;2.20;2.20;;;19.00;66.30;;;;;;5108364;27;45151;-71
2022/05/03 03:14:11;;;;;;;2.27;2.27;;;19.10;66.00;;;;;;5121045;27;43409;-72
2022/05/03 03:16:44;;;;;;;2.10;2.10;;;19.20;65.60;;;;;;5120194;27;44142;-72
2022/05/03 03:19:29;;;;;;;2.30;2.30;;;19.20;65.30;;;;;;5127210;27;43583;-72
2022/05/03 03:21:57;;;;;;;2.20;2.20;;;19.20;65.30;;;;;;5127225;27;43848;-72
2022/05/03 03:24:25;;;;;;;2.07;2.07;;;19.10;65.30;;;;;;5127662;27;44186;-71
2022/05/03 03:26:53;;;;;;;2.30;2.30;;;19.00;65.50;;;;;;5131257;27;43423;-72
2022/05/03 03:29:21;;;;;;;2.43;2.43;;;18.90;65.70;;;;;;5130932;27;44517;-71
2022/05/03 03:31:49;;;;;;;3.23;2.30;;;18.90;65.90;;;;;;5111910;27;45150;-71
2022/05/03 03:34:17;;;;;;;2.10;2.10;;;18.90;66.10;;;;;;5130329;27;43915;-71
2022/05/03 03:36:46;;;;;;;2.67;2.57;;;18.80;66.20;;;;;;5130784;27;44000;-72
2022/05/03 03:39:14;;;;;;;2.40;2.40;;;18.80;66.20;;;;;;5130514;27;45128;-72
2022/05/03 03:41:42;;;;;;;2.20;2.20;;;18.80;66.60;;;;;;5130058;27;44072;-71
2022/05/03 03:44:10;;;;;;;2.20;2.20;;;18.80;66.70;;;;;;5111713;27;43940;-72
2022/05/03 03:46:38;;;;;;;1.97;1.97;;;19.00;66.40;;;;;;5130572;27;43831;-72
2022/05/03 03:49:06;;;;;;;2.20;2.20;;;19.20;65.90;;;;;;5130312;27;43952;-71
2022/05/03 03:51:34;;;;;;;2.33;2.33;;;19.30;65.30;;;;;;5129887;27;44112;-72
2022/05/03 03:54:03;;;;;;;2.17;2.17;;;19.50;65.50;;;;;;5130748;27;43374;-72
2022/05/03 03:56:32;;;;;;;2.30;2.30;;;19.40;64.50;;;;;;5130222;27;43409;-72
2022/05/03 03:58:59;;;;;;;2.10;2.10;;;19.40;64.50;;;;;;5130174;27;44099;-71
2022/05/03 04:01:28;;;;;;;2.30;2.30;;;19.30;64.70;;;;;;5129958;27;43388;-72
2022/05/03 04:03:56;;;;;;;2.07;2.07;;;19.20;64.90;;;;;;5130661;27;43366;-72
2022/05/03 04:06:25;;;;;;;2.20;2.20;;;19.10;65.30;;;;;;5128909;27;43853;-72
2022/05/03 04:08:53;;;;;;;2.33;2.33;;;19.00;65.40;;;;;;5130683;27;43738;-72
2022/05/03 04:11:22;;;;;;;2.10;2.10;;;18.90;65.60;;;;;;5130222;27;43923;-71
2022/05/03 04:13:50;;;;;;;2.20;2.20;;;18.90;65.90;;;;;;5131069;27;43922;-71
2022/05/03 04:16:18;;;;;;;2.27;2.27;;;18.90;66.40;;;;;;5130686;27;43880;-71
2022/05/03 04:18:46;;;;;;;2.40;2.40;;;18.90;66.50;;;;;;5130424;27;45060;-71
2022/05/03 04:21:15;;;;;;;2.50;2.50;;;19.10;66.30;;;;;;5130473;27;43934;-73
2022/05/03 04:23:43;;;;;;;2.30;2.30;;;19.20;65.70;;;;;;5130332;27;43358;-71
2022/05/03 04:26:11;;;;;;;2.30;2.30;;;19.20;65.40;;;;;;5112077;27;43936;-71
2022/05/03 04:28:40;;;;;;;2.20;2.20;;;19.20;65.30;;;;;;5130145;27;45122;-71
2022/05/03 04:31:09;;;;;;;2.40;2.30;;;19.10;65.40;;;;;;5111382;27;44133;-71
2022/05/03 04:33:37;;;;;;;2.70;2.50;;;19.00;65.50;;;;;;5129944;27;43992;-72
2022/05/03 04:36:06;;;;;;;2.40;2.30;;;18.90;65.70;;;;;;5130382;27;44051;-72
2022/05/03 04:38:35;;;;;;;2.13;2.13;;;18.90;65.90;;;;;;5129761;27;45122;-72
2022/05/03 04:41:03;;;;;;;2.03;2.03;;;18.90;66.10;;;;;;5111394;27;44054;-73
2022/05/03 04:43:31;;;;;;;2.27;2.27;;;18.80;66.20;;;;;;5130376;27;43824;-71
2022/05/03 04:46:01;;;;;;;2.40;2.40;;;18.80;66.30;;;;;;5112050;27;43588;-72
2022/05/03 04:48:29;;;;;;;2.20;2.20;;;18.80;66.40;;;;;;5129445;27;44145;-71
2022/05/03 04:50:57;;;;;;;2.30;2.27;;;18.80;66.80;;;;;;5130168;27;43911;-72
2022/05/03 04:53:25;;;;;;;2.60;2.50;;;18.90;66.60;;;;;;5130366;27;43854;-72
2022/05/03 04:55:53;;;;;;;2.50;2.50;;;19.10;66.20;;;;;;5130393;27;44014;-71
2022/05/03 04:58:20;;;;;;;2.13;2.13;;;19.30;65.70;;;;;;5129451;27;43748;-72
2022/05/03 05:00:48;;;;;;;2.33;2.23;;;19.40;64.90;;;;;;5129794;27;44015;-72
2022/05/03 05:03:18;;;;;;;2.60;2.60;;;19.50;64.60;;;;;;5111028;27;43939;-71
2022/05/03 05:05:46;;;;;;;2.80;2.70;;;19.50;64.40;;;;;;5130458;27;43990;-72
2022/05/03 05:08:14;;;;;;;2.67;2.57;;;19.40;64.60;;;;;;5129181;27;43917;-72
2022/05/03 05:10:42;;;;;;;2.20;2.20;;;19.30;64.60;;;;;;5129098;27;43966;-72
2022/05/03 05:13:10;;;;;;;2.33;2.23;;;19.20;64.80;;;;;;5129966;27;43903;-72
2022/05/03 05:15:38;;;;;;;2.30;2.30;;;19.10;65.10;;;;;;5129781;27;43887;-72
2022/05/03 05:18:06;;;;;;;2.23;2.23;;;19.10;65.40;;;;;;5129375;27;43972;-73
2022/05/03 05:20:35;;;;;;;2.50;2.50;;;19.00;65.50;;;;;;5129174;27;44082;-72
2022/05/03 05:23:03;;;;;;;2.43;2.33;;;19.00;65.80;;;;;;5130017;27;44364;-72
2022/05/03 05:25:47;;;;;;;2.50;2.40;;;19.00;66.20;;;;;;5129896;27;43804;-71
2022/05/03 05:28:17;;;;;;;2.10;2.10;;;19.10;66.10;;;;;;5110592;27;45781;-72
2022/05/03 05:30:45;;;;;;;2.40;2.40;;;19.20;65.70;;;;;;5129399;27;43414;-71
2022/05/03 05:33:13;;;;;;;2.40;2.40;;;19.20;65.30;;;;;;5129336;27;43298;-71
2022/05/03 05:35:43;;;;;;;2.50;2.40;;;19.20;65.10;;;;;;5110158;27;44265;-71
2022/05/03 05:38:13;;;;;;;2.30;2.20;;;19.20;65.20;;;;;;5129358;27;44939;-71
2022/05/03 05:40:41;;;;;;;2.67;2.67;;;19.10;65.30;;;;;;5128867;27;43938;-72
2022/05/03 05:43:09;;;;;;;2.40;2.40;;;19.00;65.50;;;;;;5129515;27;43540;-72
2022/05/03 05:45:38;;;;;;;2.40;2.40;;;19.00;65.80;;;;;;5129153;27;44026;-72
2022/05/03 05:48:06;;;;;;;2.20;2.20;;;19.00;65.90;;;;;;5128084;27;44948;-71
2022/05/03 05:50:34;;;;;;;2.33;2.33;;;18.90;66.00;;;;;;5109906;27;44384;-72
2022/05/03 05:55:49;;;;;;;2.60;2.60;;;18.80;66.20;;;;;;5110622;27;44224;-72
2022/05/03 05:58:17;;;;;;;2.67;2.67;;;18.80;66.40;;;;;;5129102;27;44001;-71
2022/05/03 06:00:45;;;;;;;2.40;2.40;;;18.90;66.60;;;;;;5128833;27;43404;-71
2022/05/03 06:03:14;;;;;;;2.40;2.40;;;19.00;66.40;;;;;;5129003;27;44328;-72
2022/05/03 06:05:42;;;;;;;2.53;2.43;;;19.20;65.90;;;;;;5128782;27;43569;-72
2022/05/03 06:08:11;;;;;;;2.47;2.37;;;19.40;65.40;;;;;;5128749;27;45030;-72
2022/05/03 06:10:39;;;;;;;2.40;2.40;;;19.50;64.80;;;;;;5128354;27;44115;-71
2022/05/03 06:13:08;;;;;;;2.40;2.30;;;19.50;64.60;;;;;;5128790;27;44061;-71
2022/05/03 06:15:36;;;;;;;2.50;2.50;;;19.50;64.50;;;;;;5128600;27;44014;-72
2022/05/03 06:18:06;;;;;;;2.50;2.50;;;19.40;64.70;;;;;;5128667;27;44455;-72
2022/05/03 06:20:34;;;;;;;2.60;2.50;;;19.30;64.90;;;;;;5128202;27;43525;-72
2022/05/03 06:23:04;;;;;;;2.37;2.37;;;19.20;65.20;;;;;;5128472;27;43489;-72
2022/05/03 06:25:33;;;;;;;2.47;2.47;;;19.10;65.50;;;;;;5128634;27;43937;-72
2022/05/03 06:28:01;;;;;;;2.20;2.20;;;19.00;65.70;;;;;;5128174;27;44821;-71
2022/05/03 06:30:31;;;;;;;2.00;2.00;;;19.00;65.80;;;;;;5109363;27;45401;-71
2022/05/03 06:32:58;;;;;;;2.30;2.30;;;18.90;66.20;;;;;;5122374;27;44083;-71
2022/05/03 06:35:28;;;;;;;2.60;2.60;;;19.00;66.40;;;;;;5128152;27;43944;-71
2022/05/03 06:37:56;;;;;;;2.40;2.40;;;19.10;66.00;;;;;;5128468;27;43855;-72
2022/05/03 06:40:24;;;;;;;2.60;2.50;;;19.20;65.70;;;;;;5127969;27;43934;-72
2022/05/03 06:42:54;;;;;;;2.60;2.60;;;19.20;65.20;;;;;;5109295;27;43374;-72
2022/05/03 06:45:22;;;;;;;2.63;2.53;;;19.20;65.30;;;;;;5128341;27;43878;-72
2022/05/03 06:47:50;;;;;;;2.40;2.40;;;19.10;65.40;;;;;;5128151;27;44008;-72
2022/05/03 06:50:18;;;;;;;2.37;2.37;;;19.10;65.60;;;;;;5127897;27;43970;-71
2022/05/03 06:52:47;;;;;;;2.30;2.30;;;19.00;65.80;;;;;;5128188;27;43892;-71
2022/05/03 06:55:15;;;;;;;2.30;2.30;;;19.00;66.00;;;;;;5128574;27;43932;-72
2022/05/03 06:57:43;;;;;;;2.43;2.43;;;18.90;66.10;;;;;;5127931;27;44058;-71
2022/05/03 07:00:14;;;;;;;2.37;2.33;;;18.90;66.20;;;;;;5109086;27;44734;-72
2022/05/03 07:02:42;;;;;;;2.70;2.60;;;18.90;66.30;;;;;;5127819;27;44392;-72
2022/05/03 07:05:11;;;;;;;4.37;2.60;;;18.90;66.40;;;;;;5128193;27;43987;-72
2022/05/03 07:07:39;;;;;;;2.30;2.20;;;18.90;66.50;;;;;;5127613;27;43927;-71
2022/05/03 07:10:08;;;;;;;4.03;2.40;;;19.00;66.10;;;;;;5127414;27;43953;-71
2022/05/03 07:12:36;;;;;;;2.50;2.40;;;19.10;65.80;;;;;;5127657;27;43373;-72
2022/05/03 07:15:05;;;;;;;2.57;2.30;;;19.30;65.40;;;;;;5128056;27;44011;-71
2022/05/03 07:23:06;;;;;;;2.37;2.37;;;19.50;64.30;;;;;;5127549;27;43967;-73
2022/05/03 07:25:35;;;;;;;2.37;2.37;;;19.50;64.40;;;;;;5109061;27;44250;-71
2022/05/03 07:28:06;;;;;;;2.27;2.23;;;19.40;64.70;;;;;;5127174;27;43885;-71
2022/05/03 07:30:34;;;;;;;2.50;2.50;;;19.30;65.00;;;;;;5127020;27;44249;-72
2022/05/03 07:33:04;;;;;;;2.30;2.30;;;19.20;65.30;;;;;;5126748;27;43424;-72
2022/05/03 07:35:32;;;;;;;2.37;2.37;;;19.10;65.50;;;;;;5110609;27;43984;-72
2022/05/03 07:38:00;;;;;;;2.20;2.20;;;19.00;65.70;;;;;;5106833;27;43900;-71
2022/05/03 07:40:28;;;;;;;2.27;2.27;;;19.00;66.00;;;;;;5106393;27;43970;-72
2022/05/03 07:42:56;;;;;;;2.37;2.33;;;19.00;66.40;;;;;;5106966;27;43802;-71
2022/05/03 07:45:24;;;;;;;2.60;2.47;;;19.10;66.20;;;;;;5107200;27;43950;-72
2022/05/03 07:47:52;;;;;;;2.57;2.47;;;19.20;65.70;;;;;;5106752;27;44032;-71
2022/05/03 07:50:21;;;;;;;2.63;2.50;;;19.30;65.40;;;;;;5106863;27;43945;-72
2022/05/03 07:52:49;;;;;;;2.33;2.23;;;19.30;65.10;;;;;;5107018;27;43420;-72
2022/05/03 07:55:17;;;;;;;2.67;2.50;;;19.20;65.30;;;;;;5106898;27;43917;-72
2022/05/03 07:57:46;;;;;;;2.30;2.20;;;19.10;65.40;;;;;;5106703;27;43907;-71
2022/05/03 08:00:15;;;;;;;2.10;2.10;;;19.10;65.70;;;;;;5105280;27;45040;-71
2022/05/03 08:02:43;;;;;;;2.40;2.33;;;19.00;66.00;;;;;;5106306;27;43997;-71
2022/05/03 08:05:11;;;;;;;2.40;2.30;;;19.00;66.20;;;;;;5105112;27;43975;-71
2022/05/03 08:07:41;;;;;;;2.53;2.43;;;18.90;66.20;;;;;;5103570;27;45977;-71
2022/05/03 08:10:10;;;;;;;2.50;2.40;;;18.90;66.30;;;;;;5106551;27;43898;-70
2022/05/03 08:12:38;;;;;;;2.70;2.50;;;18.90;66.40;;;;;;5109284;27;43377;-71
2022/05/03 08:15:06;;;;;;;2.50;2.40;;;18.90;66.90;;;;;;5091260;27;44010;-71
2022/05/03 08:17:34;;;;;;;2.30;2.30;;;18.90;66.70;;;;;;5109127;27;44097;-73
2022/05/03 08:20:03;;;;;;;2.70;2.60;;;19.10;66.20;;;;;;5109673;27;43966;-72
2022/05/03 08:22:33;;;;;;;3.83;2.90;;;19.30;65.70;;;;;;5109259;27;44239;-71
2022/05/03 08:25:02;;;;;;;3.17;2.93;;;19.50;65.20;;;;;;5110634;27;43367;-71
2022/05/03 08:27:30;;;;;;;4.97;3.30;;;19.60;64.80;;;;;;5090868;27;45732;-72
2022/05/03 08:29:59;;;;;;;2.80;2.70;;;19.60;64.60;;;;;;5110084;27;43406;-72
2022/05/03 08:32:27;;;;;;;2.90;2.80;;;19.50;64.60;;;;;;5109253;27;43960;-72
2022/05/03 08:34:57;;;;;;;3.20;3.00;;;19.40;64.80;;;;;;5091505;27;44043;-72
2022/05/03 08:42:57;;;;;;;3.20;3.10;;;19.10;65.50;;;;;;5112018;27;43315;-72
2022/05/03 08:45:25;;;;;;;3.43;3.20;;;19.00;65.60;;;;;;5092576;27;43435;-72
2022/05/03 08:47:56;;;;;;;3.27;3.10;;;19.00;65.80;;;;;;5109729;27;43903;-73
2022/05/03 08:50:24;;;;;;;4.03;3.23;;;19.00;66.20;;;;;;5109744;27;43805;-71
2022/05/03 08:52:55;;;;;;;3.37;3.07;;;19.10;66.00;;;;;;5109491;27;44005;-72
2022/05/03 08:55:25;;;;;;;3.83;3.53;;;19.30;65.60;;;;;;5109187;27;44038;-71
2022/05/03 08:57:53;;;;;;;3.53;3.23;;;19.50;65.20;;;;;;5109810;27;43934;-72
2022/05/03 09:00:23;;;;;;;3.80;3.50;;;19.60;64.60;;;;;;5108884;27;43812;-71
2022/05/03 09:02:52;;;;;;;3.30;3.10;;;19.60;64.30;;;;;;5109253;27;44002;-71
2022/05/03 09:05:20;;;;;;;3.70;3.40;;;19.60;64.30;;;;;;5109539;27;44061;-71
2022/05/03 09:07:49;;;;;;;4.93;3.20;;;19.40;64.30;;;;;;5109664;27;44771;-72
2022/05/03 09:10:18;;;;;;;3.80;3.50;;;19.30;64.60;;;;;;5108322;27;44063;-71
2022/05/03 09:12:49;;;;;;;3.60;3.30;;;19.20;64.90;;;;;;5109239;27;44016;-71
2022/05/03 09:15:28;;;;;;;3.60;3.37;;;19.20;65.10;;;;;;5109494;27;43943;-71
2022/05/03 09:17:56;;;;;;;3.23;3.13;;;19.10;65.20;;;;;;5109517;27;43955;-71
2022/05/03 09:25:56;;;;;;;3.00;2.90;;;19.10;66.00;;;;;;5109070;27;43401;-71
2022/05/03 09:28:25;;;;;;;3.90;3.60;;;19.30;65.70;;;;;;5108457;27;44102;-71
2022/05/03 09:30:53;;;;;;;3.40;3.13;;;19.30;65.20;;;;;;5108870;27;43892;-71
2022/05/03 09:33:22;;;;;;;3.43;3.23;;;19.30;64.80;;;;;;5108454;27;43987;-72
2022/05/03 09:35:50;;;;;;;3.30;3.10;;;19.30;64.70;;;;;;5108272;27;44018;-72
2022/05/03 09:38:18;;;;;;;3.60;3.40;;;19.20;64.90;;;;;;5108004;27;44788;-72
2022/05/03 09:40:47;;;;;;;3.20;3.10;;;19.20;65.20;;;;;;5108415;27;44007;-72
2022/05/03 09:43:16;;;;;;;3.20;3.10;;;19.10;65.30;;;;;;5108432;27;43733;-72
2022/05/03 09:45:45;;;;;;;3.33;3.13;;;19.00;65.40;;;;;;5109048;27;43833;-72
2022/05/03 09:48:14;;;;;;;3.70;3.50;;;19.00;65.50;;;;;;5108149;27;45345;-72
2022/05/03 09:50:44;;;;;;;3.13;3.03;;;18.90;65.40;;;;;;5108281;27;43892;-71
2022/05/03 09:53:18;;;;;;;3.30;3.10;;;18.90;65.70;;;;;;5108609;27;43986;-71
2022/05/03 09:55:48;;;;;;;3.40;3.10;;;18.90;66.10;;;;;;5108196;27;44098;-71
2022/05/03 09:58:19;;;;;;;3.27;3.10;;;19.00;66.50;;;;;;5108074;27;44821;-71
2022/05/03 10:00:50;;;;;;;3.50;3.20;;;19.10;66.20;;;;;;5101186;27;44115;-71
2022/05/03 10:03:20;;;;;;;2.90;2.80;;;19.30;65.80;;;;;;5100078;27;43948;-71
2022/05/03 10:05:48;;;;;;;3.10;2.83;;;19.50;65.20;;;;;;5108628;27;43392;-72
2022/05/03 10:08:17;;;;;;;3.40;3.20;;;19.60;64.80;;;;;;5106357;27;46841;-71
2022/05/03 10:10:56;;;;;;;3.50;3.20;;;19.60;64.50;;;;;;5107821;27;44043;-71
2022/05/03 10:13:25;;;;;;;3.10;3.00;;;19.50;64.40;;;;;;5108226;27;44029;-71
2022/05/03 10:21:36;;;;;;;3.10;3.00;;;19.20;65.20;;;;;;5107261;27;43926;-72
2022/05/03 10:24:05;;;;;;;3.60;3.40;;;19.10;65.40;;;;;;5107164;27;44085;-72
2022/05/03 10:26:56;;;;;;;3.20;3.00;;;19.10;65.70;;;;;;5106123;27;43510;-71
2022/05/03 10:29:25;;;;;;;2.97;2.87;;;19.00;65.90;;;;;;5107284;27;44997;-72
2022/05/03 10:31:56;;;;;;;3.10;2.97;;;19.00;66.40;;;;;;5088920;27;44996;-71
2022/05/03 10:34:43;;;;;;;3.20;3.10;;;19.10;66.30;;;;;;5106891;27;44062;-72
2022/05/03 10:37:12;;;;;;;2.70;2.60;;;19.30;65.90;;;;;;5107978;27;44085;-72
2022/05/03 10:39:54;;;;;;;3.10;2.90;;;19.30;65.40;;;;;;5106866;27;43963;-72
2022/05/03 10:42:25;;;;;;;2.40;2.40;;;19.30;65.30;;;;;;5107525;27;43942;-72
2022/05/03 10:45:01;;;;;;;3.10;3.00;;;19.20;65.30;;;;;;5107728;27;43979;-71
2022/05/03 10:47:44;;;;;;;2.90;2.80;;;19.10;65.40;;;;;;5107303;27;44081;-71
2022/05/03 10:50:30;;;;;;;2.97;2.83;;;19.10;65.90;;;;;;5107440;27;43940;-72
2022/05/03 10:53:22;;;;;;;2.90;2.80;;;19.00;66.10;;;;;;5107278;27;44409;-72
2022/05/03 10:56:05;;;;;;;2.80;2.70;;;19.00;66.40;;;;;;5081900;27;43383;-71
2022/05/03 10:58:34;;;;;;;2.80;2.73;;;18.90;66.40;;;;;;5107307;27;44056;-72
2022/05/03 11:01:06;;;;;;;2.47;2.43;;;18.90;66.60;;;;;;5107103;27;43880;-72
2022/05/03 11:03:36;;;;;;;2.77;2.67;;;18.90;66.80;;;;;;5106934;27;44032;-72
2022/05/03 11:06:38;;;;;;;3.17;2.93;;;18.90;67.10;;;;;;5107214;27;43991;-72
2022/05/03 11:09:10;;;;;;;2.63;2.53;;;19.10;66.70;;;;;;5107549;27;43988;-72
2022/05/03 11:11:59;;;;;;;2.80;2.70;;;19.30;66.10;;;;;;5107034;27;43959;-71
2022/05/03 11:14:47;;;;;;;2.43;2.43;;;19.50;65.30;;;;;;5107087;27;43765;-72
2022/05/03 11:17:15;;;;;;;2.70;2.60;;;19.60;64.90;;;;;;5100422;27;43452;-72
2022/05/03 11:19:52;;;;;;;2.30;2.30;;;19.60;64.80;;;;;;5107509;27;44065;-72
2022/05/03 11:22:22;;;;;;;2.53;2.50;;;19.50;64.90;;;;;;5106603;27;43937;-70
2022/05/03 11:24:51;;;;;;;3.00;2.90;;;19.40;65.20;;;;;;5106681;27;44005;-72
2022/05/03 11:27:19;;;;;;;2.80;2.70;;;19.30;65.40;;;;;;5106706;27;43990;-73
2022/05/03 11:29:48;;;;;;;2.50;2.50;;;19.20;65.70;;;;;;5107029;27;43931;-71
2022/05/03 11:32:17;;;;;;;2.80;2.70;;;19.10;66.00;;;;;;5106584;27;44014;-71
2022/05/03 11:34:45;;;;;;;2.40;2.40;;;19.10;66.20;;;;;;5116421;27;43837;-72
2022/05/03 11:37:14;;;;;;;2.30;2.30;;;19.00;66.30;;;;;;5127362;27;43369;-72
2022/05/03 11:39:42;;;;;;;2.47;2.47;;;19.00;66.70;;;;;;5127550;27;44149;-72
2022/05/03 11:42:10;;;;;;;2.60;2.50;;;19.10;66.70;;;;;;5127134;27;43914;-71
2022/05/03 11:44:43;;;;;;;2.80;2.70;;;19.20;66.20;;;;;;5107954;27;44726;-71
2022/05/03 11:47:14;;;;;;;2.50;2.40;;;19.20;65.90;;;;;;5130641;27;43874;-72
2022/05/03 11:49:43;;;;;;;2.30;2.27;;;19.20;65.60;;;;;;5130948;27;43473;-71
2022/05/03 11:57:43;;;;;;;2.33;2.33;;;19.10;66.10;;;;;;5130674;27;43996;-71
2022/05/03 12:00:13;;;;;;;2.40;2.40;;;19.00;66.00;;;;;;5131511;27;43965;-71
2022/05/03 12:02:42;;;;;;;2.37;2.37;;;19.00;66.30;;;;;;5130389;27;44949;-72
2022/05/03 12:05:14;;;;;;;2.60;2.57;;;19.00;66.50;;;;;;5130171;27;43434;-72
2022/05/03 12:07:43;;;;;;;2.47;2.47;;;18.90;67.20;;;;;;5130604;27;43884;-72
2022/05/03 12:10:18;;;;;;;2.50;2.50;;;18.90;66.60;;;;;;5131176;27;43414;-72
2022/05/03 12:12:46;;;;;;;2.57;2.47;;;18.90;66.90;;;;;;5130717;27;43619;-72
2022/05/03 12:15:21;;;;;;;2.60;2.50;;;19.00;66.70;;;;;;5128703;27;44050;-71
2022/05/03 12:17:57;;;;;;;2.37;2.37;;;19.20;66.20;;;;;;5130629;27;43946;-72
2022/05/03 12:20:26;;;;;;;2.23;2.23;;;19.40;65.80;;;;;;5130802;27;43363;-72
2022/05/03 12:23:17;;;;;;;2.43;2.30;;;19.50;65.10;;;;;;5130316;27;43889;-73
2022/05/03 12:25:48;;;;;;;2.50;2.50;;;19.60;64.90;;;;;;5130131;27;43421;-72
2022/05/03 12:28:17;;;;;;;2.43;2.43;;;19.50;64.80;;;;;;5111683;27;43946;-71
2022/05/03 12:30:45;;;;;;;2.30;2.30;;;19.40;65.00;;;;;;5112182;27;44112;-72
2022/05/03 12:33:14;;;;;;;2.50;2.40;;;19.30;65.20;;;;;;5130378;27;44942;-71
2022/05/03 12:35:42;;;;;;;2.23;2.23;;;19.20;65.50;;;;;;5129530;27;43429;-71
2022/05/03 12:38:12;;;;;;;2.37;2.37;;;19.20;65.80;;;;;;5130187;27;43893;-72
2022/05/03 12:40:49;;;;;;;2.10;2.10;;;19.10;66.10;;;;;;5130990;27;44247;-72
2022/05/03 12:43:17;;;;;;;2.33;2.33;;;19.10;66.20;;;;;;5130029;27;45138;-72
2022/05/03 12:45:59;;;;;;;2.30;2.30;;;19.00;66.60;;;;;;5129839;27;44347;-73
2022/05/03 12:48:31;;;;;;;2.30;2.20;;;19.10;66.60;;;;;;5123700;27;43925;-71
2022/05/03 12:51:02;;;;;;;2.40;2.30;;;19.20;66.80;;;;;;5130389;27;44084;-72
2022/05/03 12:53:31;;;;;;;2.30;2.30;;;19.30;65.70;;;;;;5129778;27;43907;-72
2022/05/03 12:58:21;;;;;;;2.10;2.10;;;19.30;65.50;;;;;;5129923;27;43970;-72
2022/05/03 12:58:48;;;;;;;2.20;2.20;;;19.30;65.80;;;;;;5129971;27;43959;-71
2022/05/03 13:01:17;;;;;;;2.30;2.30;;;19.20;65.90;;;;;;5130290;27;43340;-71
2022/05/03 13:03:47;;;;;;;2.10;2.00;;;19.10;66.10;;;;;;5129532;27;44255;-71
2022/05/03 13:06:22;;;;;;;2.20;2.20;;;19.10;66.30;;;;;;5129482;27;44239;-70
2022/05/03 13:08:50;;;;;;;2.50;2.50;;;19.10;66.50;;;;;;5130460;27;43484;-71
2022/05/03 13:11:20;;;;;;;2.20;2.20;;;19.00;66.50;;;;;;5130008;27;43454;-71
2022/05/03 13:13:48;;;;;;;2.50;2.50;;;19.00;66.60;;;;;;5128704;27;45102;-71
2022/05/03 13:16:16;;;;;;;2.33;2.33;;;18.90;66.60;;;;;;5129135;27;43360;-71
2022/05/03 13:18:45;;;;;;;2.03;2.03;;;18.90;66.80;;;;;;5129505;27;43897;-72
2022/05/03 13:21:30;;;;;;;2.30;2.20;;;19.00;67.00;;;;;;5129738;27;44019;-71
2022/05/03 13:23:58;;;;;;;2.13;2.13;;;19.10;66.60;;;;;;5129616;27;44707;-72
2022/05/03 13:26:27;;;;;;;2.20;2.20;;;19.30;66.20;;;;;;5110414;27;46234;-72
2022/05/03 13:28:55;;;;;;;2.33;2.33;;;19.50;65.60;;;;;;5110862;27;44042;-71
2022/05/03 13:31:23;;;;;;;2.20;2.20;;;19.60;65.10;;;;;;5129547;27;43450;-71
2022/05/03 13:33:51;;;;;;;2.07;2.07;;;19.60;64.90;;;;;;5129029;27;43993;-71
2022/05/03 13:41:56;;;;;;;2.00;2.00;;;19.30;65.40;;;;;;5130002;27;44080;-71
2022/05/03 13:44:25;;;;;;;2.30;2.30;;;19.20;65.60;;;;;;5110597;27;44214;-72
2022/05/03 13:46:53;;;;;;;2.10;2.10;;;19.20;65.90;;;;;;5110038;27;45203;-71